Atlantic - Newfoundland: Past 24 Hour Conditions

 

St. Anthony Airport

08:30 AM NDT 26 April 2017
Disclaimer

This table is a summary of hourly weather conditions for the past 24 hours.
Please note that these observations might not always be representative of weather conditions over their associated marine area.

Date / Time
(NDT)
Wind(knots) Conditions Visibility(km) Pressure(kPa) Air tempC) Relative humidity(%) Dew pointC) Wind Chill
26 April 2017
8:30 SSW 14 gust 20 Partly Cloudy 16 102.8 -1 75 -5 -7
7:30 SW 11 Sunny 16 102.9 -2 80 -5 -8
6:30 WSW 15 Mainly Sunny 16 102.9 -2 73 -7 -9
5:30 WSW 18 Cloudy 16 102.9 -2 78 -5 -10
4:30 SW 17 gust 23 Mostly Cloudy 16 102.9 -2 77 -6 -10
3:30 SW 16 gust 21 Mostly Cloudy 16 102.9 -2 77 -6 -10
2:30 SW 18 Clear 16 102.9 -3 77 -6 -11
1:30 WSW 18 gust 24 Mainly Clear 16 102.9 -3 76 -7 -11
0:30 WSW 16 gust 22 Mainly Clear 16 102.8 -3 76 -7 -11
25 April 2017
23:30 SW 11 gust 19 Mostly Cloudy 16 102.8 -4 76 -7 -10
22:30 SW 18 Clear 16 102.8 -3 73 -8 -11
21:30 SW 17 gust 24 Clear 16 102.7 -3 72 -8 -11
20:30 SW 20 gust 27 Clear 16 102.7 -3 69 -8 -11
19:30 SW 15 gust 26 Sunny 16 102.6 -2 64 -8 -9
18:30 WSW 19 gust 26 Sunny 16 102.6 -2 61 -8 -9
17:30 WSW 22 gust 31 Sunny 16 102.6 -2 61 -8 -10
16:30 WSW 24 gust 32 Sunny 16 102.6 -2 60 -9 -11
15:30 WSW 27 gust 32 Sunny 16 102.5 -3 57 -10 -12
14:30 WSW 19 gust 29 Sunny 16 102.5 -3 56 -10 -11
13:30 WSW 25 gust 33 Sunny 16 102.4 -4 56 -12 -13
12:30 WSW 26 gust 32 Mainly Sunny 16 102.4 -4 57 -12 -14
11:30 W 25 gust 34 Sunny 16 102.4 -5 52 -13 -14
10:30 W 24 gust 30 Sunny 16 102.3 -5 48 -15 -15
9:30 WSW 26 gust 31 Sunny 16 102.3 -5 53 -13 -15
8:30 W 19 gust 25 Sunny 16 102.2 -5 55 -13 -14

Zoom-in to make a selection

Map of Atlantic - Newfoundland marine weather areas Southwestern Grand Banks - 44138 Banquereau - 44139 Tail of the Bank - 44140 Nickerson Bank - 44251 Northeast Burgeo Bank - 44255 Blanc-Sablon Airport Cap Whittle Chevery Natashquan Airport Heath Point Miscou Island Grand Étang Ingonish Beach North Mountain St.Paul Island J.A. Douglas McCurdy Sydney Airport Charlottetown Airport East Point North Cape Argentia Bonavista Burgeo Cape Race Corner Brook Daniel's Harbour Englee Ferolle Point La Scie Port aux Basques Rocky Harbour Sagona Island St. Anthony Airport St. John's Int'l Airport St. Lawrence Stephenville Airport Twillingate Winterland Wreckhouse Cartwright Airport Mary's Harbour Grates Cove Pool's Island Marticot Island Long Pond Eskasoni (First Nations) Îles de la Madeleine Airport
Legend:
buoy Buoy
land station Land Station

Atlantic - Newfoundland Area

Another Region

What we are doing

Date modified: